sensor_id;sensor_type;location;lat;lon;timestamp;P1;durP1;ratioP1;P2;durP2;ratioP2
31872;SDS011;22407;42.820;23.374;2024-03-23T00:52:12;11.52;;;5.30;;
31872;SDS011;22407;42.820;23.374;2024-03-23T00:54:38;13.65;;;5.50;;
31872;SDS011;22407;42.820;23.374;2024-03-23T00:57:03;12.23;;;5.67;;
31872;SDS011;22407;42.820;23.374;2024-03-23T00:59:29;11.30;;;5.20;;
31872;SDS011;22407;42.820;23.374;2024-03-23T01:01:56;11.85;;;5.28;;
31872;SDS011;22407;42.820;23.374;2024-03-23T01:04:22;11.85;;;5.30;;
31872;SDS011;22407;42.820;23.374;2024-03-23T01:06:47;17.17;;;8.60;;
31872;SDS011;22407;42.820;23.374;2024-03-23T01:09:13;12.70;;;6.53;;
31872;SDS011;22407;42.820;23.374;2024-03-23T01:11:38;13.15;;;6.10;;
31872;SDS011;22407;42.820;23.374;2024-03-23T01:14:04;13.67;;;6.47;;
31872;SDS011;22407;42.820;23.374;2024-03-23T01:16:31;19.05;;;6.40;;
31872;SDS011;22407;42.820;23.374;2024-03-23T01:18:57;16.35;;;6.85;;
31872;SDS011;22407;42.820;23.374;2024-03-23T01:21:22;13.03;;;6.30;;
31872;SDS011;22407;42.820;23.374;2024-03-23T01:23:48;13.25;;;6.43;;
31872;SDS011;22407;42.820;23.374;2024-03-23T01:26:13;12.30;;;5.33;;
31872;SDS011;22407;42.820;23.374;2024-03-23T01:28:40;13.25;;;6.25;;
31872;SDS011;22407;42.820;23.374;2024-03-23T01:31:05;13.90;;;6.07;;
31872;SDS011;22407;42.820;23.374;2024-03-23T01:33:31;14.40;;;6.28;;
31872;SDS011;22407;42.820;23.374;2024-03-23T01:35:56;15.20;;;6.70;;
31872;SDS011;22407;42.820;23.374;2024-03-23T01:38:22;14.90;;;6.67;;
31872;SDS011;22407;42.820;23.374;2024-03-23T01:40:47;16.10;;;7.03;;
31872;SDS011;22407;42.820;23.374;2024-03-23T01:43:13;15.00;;;5.73;;
31872;SDS011;22407;42.820;23.374;2024-03-23T01:45:38;32.30;;;11.57;;
31872;SDS011;22407;42.820;23.374;2024-03-23T01:48:04;22.60;;;8.85;;
31872;SDS011;22407;42.820;23.374;2024-03-23T01:50:31;16.67;;;7.43;;
31872;SDS011;22407;42.820;23.374;2024-03-23T01:53:02;15.45;;;7.05;;
31872;SDS011;22407;42.820;23.374;2024-03-23T01:55:31;16.80;;;7.13;;
31872;SDS011;22407;42.820;23.374;2024-03-23T01:57:57;14.98;;;7.22;;
31872;SDS011;22407;42.820;23.374;2024-03-23T02:00:23;16.55;;;7.13;;
31872;SDS011;22407;42.820;23.374;2024-03-23T02:02:49;14.63;;;6.80;;
31872;SDS011;22407;42.820;23.374;2024-03-23T02:05:14;16.40;;;6.88;;
31872;SDS011;22407;42.820;23.374;2024-03-23T02:07:41;16.20;;;7.07;;
31872;SDS011;22407;42.820;23.374;2024-03-23T02:10:08;14.35;;;6.30;;
31872;SDS011;22407;42.820;23.374;2024-03-23T02:12:40;13.15;;;6.43;;
31872;SDS011;22407;42.820;23.374;2024-03-23T02:15:06;15.45;;;6.80;;
31872;SDS011;22407;42.820;23.374;2024-03-23T02:17:33;15.43;;;6.57;;
31872;SDS011;22407;42.820;23.374;2024-03-23T02:19:59;14.07;;;6.50;;
31872;SDS011;22407;42.820;23.374;2024-03-23T02:22:25;14.70;;;6.13;;
31872;SDS011;22407;42.820;23.374;2024-03-23T02:25:00;14.07;;;5.80;;
31872;SDS011;22407;42.820;23.374;2024-03-23T02:27:27;17.00;;;7.13;;
31872;SDS011;22407;42.820;23.374;2024-03-23T02:29:53;14.60;;;6.90;;
31872;SDS011;22407;42.820;23.374;2024-03-23T02:32:18;16.80;;;6.73;;
31872;SDS011;22407;42.820;23.374;2024-03-23T02:34:44;15.07;;;6.77;;
31872;SDS011;22407;42.820;23.374;2024-03-23T02:37:12;14.48;;;6.97;;
31872;SDS011;22407;42.820;23.374;2024-03-23T02:39:40;13.43;;;7.03;;
31872;SDS011;22407;42.820;23.374;2024-03-23T02:42:05;15.73;;;7.43;;
31872;SDS011;22407;42.820;23.374;2024-03-23T02:44:31;15.27;;;6.80;;
31872;SDS011;22407;42.820;23.374;2024-03-23T02:46:56;15.47;;;7.33;;
31872;SDS011;22407;42.820;23.374;2024-03-23T02:49:22;17.05;;;7.20;;
31872;SDS011;22407;42.820;23.374;2024-03-23T02:51:48;17.43;;;7.03;;
31872;SDS011;22407;42.820;23.374;2024-03-23T02:54:14;16.23;;;6.88;;
31872;SDS011;22407;42.820;23.374;2024-03-23T02:56:39;13.73;;;6.50;;
31872;SDS011;22407;42.820;23.374;2024-03-23T02:59:05;14.88;;;6.60;;
31872;SDS011;22407;42.820;23.374;2024-03-23T03:01:31;15.40;;;6.70;;
31872;SDS011;22407;42.820;23.374;2024-03-23T03:03:56;19.02;;;7.72;;
31872;SDS011;22407;42.820;23.374;2024-03-23T03:06:23;16.90;;;6.80;;
31872;SDS011;22407;42.820;23.374;2024-03-23T03:08:49;15.77;;;7.00;;
31872;SDS011;22407;42.820;23.374;2024-03-23T03:11:15;18.27;;;7.13;;
31872;SDS011;22407;42.820;23.374;2024-03-23T03:13:40;16.47;;;7.23;;
31872;SDS011;22407;42.820;23.374;2024-03-23T03:16:08;16.23;;;7.20;;
31872;SDS011;22407;42.820;23.374;2024-03-23T03:18:34;17.27;;;8.13;;
31872;SDS011;22407;42.820;23.374;2024-03-23T03:21:00;18.23;;;7.90;;
31872;SDS011;22407;42.820;23.374;2024-03-23T03:23:26;17.60;;;7.55;;
31872;SDS011;22407;42.820;23.374;2024-03-23T03:25:51;13.67;;;6.63;;
31872;SDS011;22407;42.820;23.374;2024-03-23T03:28:17;12.98;;;6.43;;
31872;SDS011;22407;42.820;23.374;2024-03-23T03:30:42;16.27;;;6.60;;
31872;SDS011;22407;42.820;23.374;2024-03-23T03:33:08;15.77;;;6.60;;
31872;SDS011;22407;42.820;23.374;2024-03-23T03:35:33;15.57;;;6.90;;
31872;SDS011;22407;42.820;23.374;2024-03-23T03:37:59;16.90;;;6.82;;
31872;SDS011;22407;42.820;23.374;2024-03-23T03:40:24;18.00;;;6.40;;
31872;SDS011;22407;42.820;23.374;2024-03-23T03:42:50;17.80;;;7.73;;
31872;SDS011;22407;42.820;23.374;2024-03-23T03:45:16;16.90;;;7.65;;
31872;SDS011;22407;42.820;23.374;2024-03-23T03:47:41;18.60;;;8.03;;
31872;SDS011;22407;42.820;23.374;2024-03-23T03:50:07;21.47;;;8.50;;
31872;SDS011;22407;42.820;23.374;2024-03-23T03:52:32;16.88;;;7.70;;
31872;SDS011;22407;42.820;23.374;2024-03-23T03:55:01;19.13;;;8.23;;
31872;SDS011;22407;42.820;23.374;2024-03-23T03:57:27;16.48;;;7.32;;
31872;SDS011;22407;42.820;23.374;2024-03-23T03:59:53;18.25;;;7.90;;
31872;SDS011;22407;42.820;23.374;2024-03-23T04:02:20;21.20;;;7.60;;
31872;SDS011;22407;42.820;23.374;2024-03-23T04:04:45;18.05;;;7.82;;
31872;SDS011;22407;42.820;23.374;2024-03-23T04:07:10;16.13;;;7.87;;
31872;SDS011;22407;42.820;23.374;2024-03-23T04:09:36;20.03;;;8.20;;
31872;SDS011;22407;42.820;23.374;2024-03-23T04:12:02;19.10;;;8.03;;
31872;SDS011;22407;42.820;23.374;2024-03-23T04:14:27;19.03;;;9.23;;
31872;SDS011;22407;42.820;23.374;2024-03-23T04:16:53;23.83;;;8.53;;
31872;SDS011;22407;42.820;23.374;2024-03-23T04:19:18;21.50;;;8.47;;
31872;SDS011;22407;42.820;23.374;2024-03-23T04:21:44;20.17;;;9.43;;
31872;SDS011;22407;42.820;23.374;2024-03-23T04:24:10;23.95;;;9.43;;
31872;SDS011;22407;42.820;23.374;2024-03-23T04:26:42;20.90;;;8.93;;
31872;SDS011;22407;42.820;23.374;2024-03-23T04:29:08;21.52;;;8.88;;
31872;SDS011;22407;42.820;23.374;2024-03-23T04:31:33;23.33;;;9.57;;
31872;SDS011;22407;42.820;23.374;2024-03-23T04:34:00;21.02;;;9.25;;
31872;SDS011;22407;42.820;23.374;2024-03-23T04:36:26;20.88;;;8.77;;
31872;SDS011;22407;42.820;23.374;2024-03-23T04:38:52;21.60;;;9.20;;
31872;SDS011;22407;42.820;23.374;2024-03-23T04:41:17;23.50;;;9.53;;
31872;SDS011;22407;42.820;23.374;2024-03-23T04:43:43;19.90;;;8.67;;
31872;SDS011;22407;42.820;23.374;2024-03-23T04:46:09;23.08;;;10.00;;
31872;SDS011;22407;42.820;23.374;2024-03-23T04:48:34;20.90;;;9.57;;
31872;SDS011;22407;42.820;23.374;2024-03-23T04:51:01;21.98;;;9.43;;
31872;SDS011;22407;42.820;23.374;2024-03-23T04:53:27;19.80;;;9.17;;
31872;SDS011;22407;42.820;23.374;2024-03-23T04:55:55;19.60;;;9.30;;
31872;SDS011;22407;42.820;23.374;2024-03-23T04:58:24;23.38;;;9.45;;
31872;SDS011;22407;42.820;23.374;2024-03-23T05:00:54;21.60;;;9.20;;
31872;SDS011;22407;42.820;23.374;2024-03-23T05:03:20;22.27;;;9.60;;
31872;SDS011;22407;42.820;23.374;2024-03-23T05:05:49;19.63;;;8.50;;
31872;SDS011;22407;42.820;23.374;2024-03-23T05:08:19;20.08;;;8.95;;
31872;SDS011;22407;42.820;23.374;2024-03-23T05:10:44;23.07;;;9.10;;
31872;SDS011;22407;42.820;23.374;2024-03-23T05:13:10;20.20;;;9.20;;
31872;SDS011;22407;42.820;23.374;2024-03-23T05:15:37;18.50;;;9.30;;
31872;SDS011;22407;42.820;23.374;2024-03-23T05:18:03;22.15;;;9.70;;
31872;SDS011;22407;42.820;23.374;2024-03-23T05:20:30;20.80;;;9.00;;
31872;SDS011;22407;42.820;23.374;2024-03-23T05:22:57;21.25;;;9.52;;
31872;SDS011;22407;42.820;23.374;2024-03-23T05:25:22;29.60;;;12.25;;
31872;SDS011;22407;42.820;23.374;2024-03-23T05:27:48;33.23;;;13.57;;
31872;SDS011;22407;42.820;23.374;2024-03-23T05:30:14;30.50;;;13.07;;
31872;SDS011;22407;42.820;23.374;2024-03-23T05:32:39;30.80;;;14.40;;
31872;SDS011;22407;42.820;23.374;2024-03-23T05:35:09;30.35;;;13.73;;
31872;SDS011;22407;42.820;23.374;2024-03-23T05:37:35;35.08;;;16.02;;
31872;SDS011;22407;42.820;23.374;2024-03-23T05:40:00;32.27;;;16.03;;
31872;SDS011;22407;42.820;23.374;2024-03-23T05:42:28;30.67;;;15.02;;
31872;SDS011;22407;42.820;23.374;2024-03-23T05:44:54;30.08;;;14.65;;
31872;SDS011;22407;42.820;23.374;2024-03-23T05:47:19;29.30;;;14.50;;
31872;SDS011;22407;42.820;23.374;2024-03-23T05:49:48;30.67;;;14.07;;
31872;SDS011;22407;42.820;23.374;2024-03-23T05:52:16;25.48;;;13.55;;
31872;SDS011;22407;42.820;23.374;2024-03-23T05:54:42;34.60;;;14.60;;
31872;SDS011;22407;42.820;23.374;2024-03-23T05:57:08;28.40;;;14.33;;
31872;SDS011;22407;42.820;23.374;2024-03-23T05:59:34;57.47;;;20.67;;
31872;SDS011;22407;42.820;23.374;2024-03-23T06:02:00;34.00;;;15.63;;
31872;SDS011;22407;42.820;23.374;2024-03-23T06:04:25;35.97;;;15.57;;
31872;SDS011;22407;42.820;23.374;2024-03-23T06:06:51;34.83;;;15.07;;
31872;SDS011;22407;42.820;23.374;2024-03-23T06:09:19;31.92;;;15.85;;
31872;SDS011;22407;42.820;23.374;2024-03-23T06:11:45;28.80;;;14.20;;
31872;SDS011;22407;42.820;23.374;2024-03-23T06:14:10;29.38;;;15.05;;
31872;SDS011;22407;42.820;23.374;2024-03-23T06:16:36;28.03;;;14.23;;
31872;SDS011;22407;42.820;23.374;2024-03-23T06:19:01;27.50;;;13.27;;
31872;SDS011;22407;42.820;23.374;2024-03-23T06:21:29;23.80;;;12.87;;
31872;SDS011;22407;42.820;23.374;2024-03-23T06:23:55;22.83;;;12.07;;
31872;SDS011;22407;42.820;23.374;2024-03-23T06:26:21;23.23;;;13.10;;
31872;SDS011;22407;42.820;23.374;2024-03-23T06:28:47;26.98;;;11.82;;
31872;SDS011;22407;42.820;23.374;2024-03-23T06:31:13;25.60;;;13.75;;
31872;SDS011;22407;42.820;23.374;2024-03-23T06:33:38;32.43;;;15.63;;
31872;SDS011;22407;42.820;23.374;2024-03-23T06:36:04;30.33;;;13.60;;
31872;SDS011;22407;42.820;23.374;2024-03-23T06:38:31;26.95;;;14.27;;
31872;SDS011;22407;42.820;23.374;2024-03-23T06:40:56;27.53;;;14.20;;
31872;SDS011;22407;42.820;23.374;2024-03-23T06:43:23;29.63;;;14.43;;
31872;SDS011;22407;42.820;23.374;2024-03-23T06:45:54;29.47;;;15.23;;
31872;SDS011;22407;42.820;23.374;2024-03-23T06:48:20;31.83;;;16.23;;
31872;SDS011;22407;42.820;23.374;2024-03-23T06:50:46;32.13;;;16.02;;
31872;SDS011;22407;42.820;23.374;2024-03-23T06:53:12;29.23;;;15.77;;
31872;SDS011;22407;42.820;23.374;2024-03-23T06:55:38;26.23;;;13.73;;
31872;SDS011;22407;42.820;23.374;2024-03-23T06:58:04;29.67;;;15.77;;
31872;SDS011;22407;42.820;23.374;2024-03-23T07:00:29;28.87;;;14.90;;
31872;SDS011;22407;42.820;23.374;2024-03-23T07:02:55;26.67;;;13.52;;
31872;SDS011;22407;42.820;23.374;2024-03-23T07:05:21;33.53;;;17.10;;
31872;SDS011;22407;42.820;23.374;2024-03-23T07:07:46;28.50;;;14.27;;
31872;SDS011;22407;42.820;23.374;2024-03-23T07:10:12;23.83;;;13.73;;
31872;SDS011;22407;42.820;23.374;2024-03-23T07:12:37;27.67;;;13.60;;
31872;SDS011;22407;42.820;23.374;2024-03-23T07:15:03;26.05;;;13.20;;
31872;SDS011;22407;42.820;23.374;2024-03-23T07:17:29;23.27;;;12.70;;
31872;SDS011;22407;42.820;23.374;2024-03-23T07:19:54;23.17;;;12.70;;
31872;SDS011;22407;42.820;23.374;2024-03-23T07:22:20;22.17;;;12.00;;
31872;SDS011;22407;42.820;23.374;2024-03-23T07:24:45;22.07;;;11.40;;
31872;SDS011;22407;42.820;23.374;2024-03-23T07:27:11;22.67;;;12.30;;
31872;SDS011;22407;42.820;23.374;2024-03-23T07:29:37;22.20;;;11.80;;
31872;SDS011;22407;42.820;23.374;2024-03-23T07:32:02;22.67;;;12.87;;
31872;SDS011;22407;42.820;23.374;2024-03-23T07:34:28;21.75;;;12.52;;
31872;SDS011;22407;42.820;23.374;2024-03-23T07:36:53;21.47;;;12.27;;
31872;SDS011;22407;42.820;23.374;2024-03-23T07:39:19;22.93;;;11.73;;
31872;SDS011;22407;42.820;23.374;2024-03-23T07:41:45;24.92;;;12.52;;
31872;SDS011;22407;42.820;23.374;2024-03-23T07:44:10;22.00;;;11.30;;
31872;SDS011;22407;42.820;23.374;2024-03-23T07:46:36;23.30;;;12.37;;
31872;SDS011;22407;42.820;23.374;2024-03-23T07:49:01;23.63;;;11.45;;
31872;SDS011;22407;42.820;23.374;2024-03-23T07:51:29;23.10;;;11.53;;
31872;SDS011;22407;42.820;23.374;2024-03-23T07:53:54;23.52;;;11.10;;
31872;SDS011;22407;42.820;23.374;2024-03-23T07:56:20;24.77;;;12.23;;
31872;SDS011;22407;42.820;23.374;2024-03-23T07:58:46;24.08;;;11.55;;
31872;SDS011;22407;42.820;23.374;2024-03-23T08:01:13;24.63;;;12.20;;
31872;SDS011;22407;42.820;23.374;2024-03-23T08:03:41;26.08;;;12.15;;
31872;SDS011;22407;42.820;23.374;2024-03-23T08:06:11;24.90;;;11.33;;
31872;SDS011;22407;42.820;23.374;2024-03-23T08:08:39;24.98;;;11.52;;
31872;SDS011;22407;42.820;23.374;2024-03-23T08:11:05;21.60;;;10.95;;
31872;SDS011;22407;42.820;23.374;2024-03-23T08:13:31;22.05;;;10.65;;
31872;SDS011;22407;42.820;23.374;2024-03-23T08:15:58;21.20;;;10.70;;
31872;SDS011;22407;42.820;23.374;2024-03-23T08:18:24;21.53;;;11.23;;
31872;SDS011;22407;42.820;23.374;2024-03-23T08:20:59;19.70;;;9.77;;
31872;SDS011;22407;42.820;23.374;2024-03-23T08:23:29;21.38;;;9.85;;
31872;SDS011;22407;42.820;23.374;2024-03-23T08:26:02;22.35;;;9.88;;
31872;SDS011;22407;42.820;23.374;2024-03-23T08:28:32;18.37;;;8.53;;
31872;SDS011;22407;42.820;23.374;2024-03-23T08:31:00;16.77;;;8.30;;
31872;SDS011;22407;42.820;23.374;2024-03-23T08:33:27;23.00;;;11.70;;
31872;SDS011;22407;42.820;23.374;2024-03-23T08:36:06;16.17;;;7.97;;
31872;SDS011;22407;42.820;23.374;2024-03-23T08:38:32;15.15;;;6.90;;
31872;SDS011;22407;42.820;23.374;2024-03-23T08:43:28;14.93;;;7.23;;
31872;SDS011;22407;42.820;23.374;2024-03-23T08:46:03;15.10;;;7.25;;
31872;SDS011;22407;42.820;23.374;2024-03-23T08:48:32;19.23;;;9.40;;
31872;SDS011;22407;42.820;23.374;2024-03-23T08:51:02;16.95;;;7.75;;
31872;SDS011;22407;42.820;23.374;2024-03-23T08:53:29;17.25;;;7.15;;
31872;SDS011;22407;42.820;23.374;2024-03-23T08:55:59;20.83;;;10.87;;
31872;SDS011;22407;42.820;23.374;2024-03-23T08:58:26;19.35;;;9.85;;
31872;SDS011;22407;42.820;23.374;2024-03-23T09:00:53;14.60;;;7.47;;
31872;SDS011;22407;42.820;23.374;2024-03-23T09:03:23;15.02;;;7.28;;
31872;SDS011;22407;42.820;23.374;2024-03-23T09:05:49;18.20;;;7.50;;
31872;SDS011;22407;42.820;23.374;2024-03-23T09:08:16;17.53;;;7.00;;
31872;SDS011;22407;42.820;23.374;2024-03-23T09:10:41;15.40;;;7.70;;
31872;SDS011;22407;42.820;23.374;2024-03-23T09:13:07;14.20;;;7.13;;
31872;SDS011;22407;42.820;23.374;2024-03-23T09:15:34;16.23;;;7.63;;
31872;SDS011;22407;42.820;23.374;2024-03-23T09:18:00;21.67;;;7.32;;
31872;SDS011;22407;42.820;23.374;2024-03-23T09:20:26;16.13;;;7.20;;
31872;SDS011;22407;42.820;23.374;2024-03-23T09:22:51;16.42;;;6.75;;
31872;SDS011;22407;42.820;23.374;2024-03-23T09:25:17;17.23;;;6.70;;
31872;SDS011;22407;42.820;23.374;2024-03-23T09:27:42;16.93;;;7.23;;
31872;SDS011;22407;42.820;23.374;2024-03-23T09:30:10;17.00;;;6.97;;
31872;SDS011;22407;42.820;23.374;2024-03-23T09:32:36;13.13;;;6.72;;
31872;SDS011;22407;42.820;23.374;2024-03-23T09:35:01;12.70;;;6.63;;
31872;SDS011;22407;42.820;23.374;2024-03-23T09:37:27;15.77;;;7.30;;
31872;SDS011;22407;42.820;23.374;2024-03-23T09:39:52;27.55;;;11.23;;
31872;SDS011;22407;42.820;23.374;2024-03-23T09:42:18;15.87;;;6.90;;
31872;SDS011;22407;42.820;23.374;2024-03-23T09:44:43;20.37;;;6.90;;
31872;SDS011;22407;42.820;23.374;2024-03-23T09:47:09;17.33;;;6.90;;
31872;SDS011;22407;42.820;23.374;2024-03-23T09:49:35;14.38;;;6.97;;
31872;SDS011;22407;42.820;23.374;2024-03-23T09:52:03;15.93;;;6.33;;
31872;SDS011;22407;42.820;23.374;2024-03-23T09:54:29;14.02;;;6.28;;
31872;SDS011;22407;42.820;23.374;2024-03-23T09:56:55;14.00;;;6.10;;
31872;SDS011;22407;42.820;23.374;2024-03-23T09:59:20;15.47;;;6.90;;
31872;SDS011;22407;42.820;23.374;2024-03-23T10:01:46;13.23;;;5.93;;
31872;SDS011;22407;42.820;23.374;2024-03-23T10:04:23;14.45;;;5.90;;
31872;SDS011;22407;42.820;23.374;2024-03-23T10:07:10;15.15;;;5.45;;
31872;SDS011;22407;42.820;23.374;2024-03-23T10:09:40;12.23;;;5.30;;
31872;SDS011;22407;42.820;23.374;2024-03-23T10:12:24;14.77;;;6.20;;
31872;SDS011;22407;42.820;23.374;2024-03-23T10:14:49;13.75;;;5.47;;
31872;SDS011;22407;42.820;23.374;2024-03-23T10:19:45;12.68;;;5.47;;
31872;SDS011;22407;42.820;23.374;2024-03-23T10:22:22;13.83;;;5.63;;
31872;SDS011;22407;42.820;23.374;2024-03-23T10:24:49;11.45;;;5.30;;
31872;SDS011;22407;42.820;23.374;2024-03-23T10:27:19;12.93;;;5.40;;
31872;SDS011;22407;42.820;23.374;2024-03-23T10:29:45;10.32;;;4.25;;
31872;SDS011;22407;42.820;23.374;2024-03-23T10:32:12;10.88;;;5.15;;
31872;SDS011;22407;42.820;23.374;2024-03-23T10:34:39;11.67;;;4.80;;
31872;SDS011;22407;42.820;23.374;2024-03-23T10:37:05;16.13;;;6.47;;
31872;SDS011;22407;42.820;23.374;2024-03-23T10:39:35;16.20;;;6.78;;
31872;SDS011;22407;42.820;23.374;2024-03-23T10:42:04;10.07;;;4.40;;
31872;SDS011;22407;42.820;23.374;2024-03-23T10:44:32;10.97;;;4.20;;
31872;SDS011;22407;42.820;23.374;2024-03-23T10:46:58;14.55;;;5.10;;
31872;SDS011;22407;42.820;23.374;2024-03-23T10:49:35;12.40;;;4.35;;
31872;SDS011;22407;42.820;23.374;2024-03-23T10:52:04;10.82;;;4.20;;
31872;SDS011;22407;42.820;23.374;2024-03-23T10:54:31;12.10;;;4.93;;
31872;SDS011;22407;42.820;23.374;2024-03-23T10:57:17;11.07;;;4.87;;
31872;SDS011;22407;42.820;23.374;2024-03-23T10:59:45;10.57;;;4.55;;
31872;SDS011;22407;42.820;23.374;2024-03-23T11:02:20;12.07;;;4.70;;
31872;SDS011;22407;42.820;23.374;2024-03-23T11:04:47;10.38;;;4.90;;
31872;SDS011;22407;42.820;23.374;2024-03-23T11:09:48;10.70;;;4.20;;
31872;SDS011;22407;42.820;23.374;2024-03-23T11:15:02;12.30;;;4.40;;
31872;SDS011;22407;42.820;23.374;2024-03-23T11:17:30;10.02;;;3.83;;
31872;SDS011;22407;42.820;23.374;2024-03-23T11:19:56;10.23;;;4.32;;
31872;SDS011;22407;42.820;23.374;2024-03-23T11:27:46;9.95;;;4.25;;
31872;SDS011;22407;42.820;23.374;2024-03-23T11:32:49;9.35;;;4.38;;
31872;SDS011;22407;42.820;23.374;2024-03-23T11:35:26;9.97;;;3.67;;
31872;SDS011;22407;42.820;23.374;2024-03-23T11:38:03;9.98;;;3.60;;
31872;SDS011;22407;42.820;23.374;2024-03-23T11:40:39;10.40;;;4.07;;
31872;SDS011;22407;42.820;23.374;2024-03-23T11:43:07;11.10;;;4.40;;
31872;SDS011;22407;42.820;23.374;2024-03-23T11:45:43;13.02;;;3.83;;
31872;SDS011;22407;42.820;23.374;2024-03-23T11:48:20;10.37;;;4.03;;
31872;SDS011;22407;42.820;23.374;2024-03-23T11:50:48;11.45;;;3.75;;
31872;SDS011;22407;42.820;23.374;2024-03-23T11:53:21;8.98;;;3.80;;
31872;SDS011;22407;42.820;23.374;2024-03-23T11:56:06;10.65;;;3.40;;
31872;SDS011;22407;42.820;23.374;2024-03-23T11:58:32;12.57;;;4.75;;
31872;SDS011;22407;42.820;23.374;2024-03-23T12:01:03;11.73;;;4.47;;
31872;SDS011;22407;42.820;23.374;2024-03-23T12:03:30;11.30;;;3.58;;
31872;SDS011;22407;42.820;23.374;2024-03-23T12:05:59;8.95;;;3.33;;
31872;SDS011;22407;42.820;23.374;2024-03-23T12:08:30;11.40;;;4.07;;
31872;SDS011;22407;42.820;23.374;2024-03-23T12:13:35;12.17;;;4.43;;
31872;SDS011;22407;42.820;23.374;2024-03-23T12:16:09;12.45;;;4.10;;
31872;SDS011;22407;42.820;23.374;2024-03-23T12:18:40;11.83;;;3.63;;
31872;SDS011;22407;42.820;23.374;2024-03-23T12:21:07;11.65;;;3.75;;
31872;SDS011;22407;42.820;23.374;2024-03-23T12:23:33;8.65;;;3.67;;
31872;SDS011;22407;42.820;23.374;2024-03-23T12:26:05;8.57;;;3.75;;
31872;SDS011;22407;42.820;23.374;2024-03-23T12:28:32;9.13;;;3.47;;
31872;SDS011;22407;42.820;23.374;2024-03-23T12:30:58;9.27;;;3.50;;
31872;SDS011;22407;42.820;23.374;2024-03-23T12:33:24;13.45;;;3.90;;
31872;SDS011;22407;42.820;23.374;2024-03-23T12:35:50;10.27;;;3.22;;
31872;SDS011;22407;42.820;23.374;2024-03-23T12:38:16;9.05;;;3.67;;
31872;SDS011;22407;42.820;23.374;2024-03-23T12:40:43;9.52;;;3.63;;
31872;SDS011;22407;42.820;23.374;2024-03-23T12:43:12;9.70;;;3.83;;
31872;SDS011;22407;42.820;23.374;2024-03-23T12:45:38;8.50;;;3.67;;
31872;SDS011;22407;42.820;23.374;2024-03-23T12:48:04;8.67;;;3.43;;
31872;SDS011;22407;42.820;23.374;2024-03-23T12:50:29;9.23;;;3.42;;
31872;SDS011;22407;42.820;23.374;2024-03-23T12:52:55;8.87;;;4.00;;
31872;SDS011;22407;42.820;23.374;2024-03-23T12:55:20;9.03;;;3.70;;
31872;SDS011;22407;42.820;23.374;2024-03-23T12:57:46;7.77;;;3.20;;
31872;SDS011;22407;42.820;23.374;2024-03-23T13:00:12;8.82;;;3.17;;
31872;SDS011;22407;42.820;23.374;2024-03-23T13:02:40;7.38;;;3.13;;
31872;SDS011;22407;42.820;23.374;2024-03-23T13:05:06;8.23;;;3.90;;
31872;SDS011;22407;42.820;23.374;2024-03-23T13:07:34;9.15;;;2.92;;
31872;SDS011;22407;42.820;23.374;2024-03-23T13:10:00;6.25;;;2.85;;
31872;SDS011;22407;42.820;23.374;2024-03-23T13:12:27;8.00;;;3.13;;
31872;SDS011;22407;42.820;23.374;2024-03-23T13:14:52;8.82;;;3.20;;
31872;SDS011;22407;42.820;23.374;2024-03-23T13:17:18;7.53;;;3.13;;
31872;SDS011;22407;42.820;23.374;2024-03-23T13:19:43;10.93;;;3.10;;
31872;SDS011;22407;42.820;23.374;2024-03-23T13:22:09;8.80;;;3.10;;
31872;SDS011;22407;42.820;23.374;2024-03-23T13:24:36;7.53;;;3.17;;
31872;SDS011;22407;42.820;23.374;2024-03-23T13:27:02;13.33;;;2.80;;
31872;SDS011;22407;42.820;23.374;2024-03-23T13:29:30;7.55;;;2.78;;
31872;SDS011;22407;42.820;23.374;2024-03-23T13:31:56;9.87;;;2.60;;
31872;SDS011;22407;42.820;23.374;2024-03-23T13:34:24;6.05;;;2.50;;
31872;SDS011;22407;42.820;23.374;2024-03-23T13:36:50;11.97;;;5.33;;
31872;SDS011;22407;42.820;23.374;2024-03-23T13:39:15;6.50;;;2.90;;
31872;SDS011;22407;42.820;23.374;2024-03-23T13:41:42;6.00;;;2.33;;
31872;SDS011;22407;42.820;23.374;2024-03-23T13:44:09;8.05;;;2.22;;
31872;SDS011;22407;42.820;23.374;2024-03-23T13:46:39;9.80;;;2.55;;
31872;SDS011;22407;42.820;23.374;2024-03-23T13:49:05;6.60;;;2.35;;
31872;SDS011;22407;42.820;23.374;2024-03-23T13:51:31;7.20;;;2.30;;
31872;SDS011;22407;42.820;23.374;2024-03-23T13:53:57;7.72;;;2.40;;
31872;SDS011;22407;42.820;23.374;2024-03-23T13:56:26;6.90;;;2.30;;
31872;SDS011;22407;42.820;23.374;2024-03-23T13:59:05;6.00;;;2.50;;
31872;SDS011;22407;42.820;23.374;2024-03-23T14:01:30;8.77;;;2.50;;
31872;SDS011;22407;42.820;23.374;2024-03-23T14:03:57;7.35;;;2.30;;
31872;SDS011;22407;42.820;23.374;2024-03-23T14:06:22;6.43;;;2.27;;
31872;SDS011;22407;42.820;23.374;2024-03-23T14:08:49;7.27;;;2.37;;
31872;SDS011;22407;42.820;23.374;2024-03-23T14:11:14;5.20;;;1.90;;
31872;SDS011;22407;42.820;23.374;2024-03-23T14:13:40;7.97;;;2.15;;
31872;SDS011;22407;42.820;23.374;2024-03-23T14:16:06;6.10;;;2.20;;
31872;SDS011;22407;42.820;23.374;2024-03-23T14:18:31;6.25;;;2.17;;
31872;SDS011;22407;42.820;23.374;2024-03-23T14:20:58;7.77;;;2.20;;
31872;SDS011;22407;42.820;23.374;2024-03-23T14:23:25;6.10;;;2.08;;
31872;SDS011;22407;42.820;23.374;2024-03-23T14:25:55;6.63;;;2.15;;
31872;SDS011;22407;42.820;23.374;2024-03-23T14:28:21;7.73;;;2.20;;
31872;SDS011;22407;42.820;23.374;2024-03-23T14:30:48;8.50;;;2.42;;
31872;SDS011;22407;42.820;23.374;2024-03-23T14:33:15;7.25;;;2.30;;
31872;SDS011;22407;42.820;23.374;2024-03-23T14:35:41;5.72;;;2.42;;
31872;SDS011;22407;42.820;23.374;2024-03-23T14:38:06;6.37;;;2.17;;
31872;SDS011;22407;42.820;23.374;2024-03-23T14:40:32;6.82;;;2.38;;
31872;SDS011;22407;42.820;23.374;2024-03-23T14:42:58;6.00;;;2.08;;
31872;SDS011;22407;42.820;23.374;2024-03-23T14:45:24;7.10;;;2.60;;
31872;SDS011;22407;42.820;23.374;2024-03-23T14:47:52;7.72;;;3.30;;
31872;SDS011;22407;42.820;23.374;2024-03-23T14:50:18;7.07;;;2.53;;
31872;SDS011;22407;42.820;23.374;2024-03-23T14:52:44;10.13;;;4.15;;
31872;SDS011;22407;42.820;23.374;2024-03-23T14:55:13;7.22;;;2.53;;
31872;SDS011;22407;42.820;23.374;2024-03-23T14:57:38;7.90;;;4.10;;
31872;SDS011;22407;42.820;23.374;2024-03-23T15:00:06;6.45;;;2.42;;
31872;SDS011;22407;42.820;23.374;2024-03-23T15:02:33;7.05;;;2.88;;
31872;SDS011;22407;42.820;23.374;2024-03-23T15:04:59;6.43;;;2.78;;
31872;SDS011;22407;42.820;23.374;2024-03-23T15:07:25;7.18;;;2.45;;
31872;SDS011;22407;42.820;23.374;2024-03-23T15:09:52;7.30;;;2.77;;
31872;SDS011;22407;42.820;23.374;2024-03-23T15:12:18;6.95;;;3.08;;
31872;SDS011;22407;42.820;23.374;2024-03-23T15:14:44;8.35;;;3.38;;
31872;SDS011;22407;42.820;23.374;2024-03-23T15:17:11;7.50;;;2.47;;
31872;SDS011;22407;42.820;23.374;2024-03-23T15:19:36;9.10;;;4.60;;
31872;SDS011;22407;42.820;23.374;2024-03-23T15:22:02;18.33;;;10.17;;
31872;SDS011;22407;42.820;23.374;2024-03-23T15:24:28;14.35;;;6.80;;
31872;SDS011;22407;42.820;23.374;2024-03-23T15:26:54;10.47;;;3.53;;
31872;SDS011;22407;42.820;23.374;2024-03-23T15:29:20;9.45;;;2.90;;
31872;SDS011;22407;42.820;23.374;2024-03-23T15:31:47;7.18;;;2.75;;